sensor_id;sensor_type;location;lat;lon;timestamp;P1;durP1;ratioP1;P2;durP2;ratioP2
5912;SDS011;2982;42.684;23.356;2023-02-13T00:00:15;76.13;;;33.97;;
5912;SDS011;2982;42.684;23.356;2023-02-13T00:02:43;78.20;;;34.77;;
5912;SDS011;2982;42.684;23.356;2023-02-13T00:05:08;79.87;;;34.30;;
5912;SDS011;2982;42.684;23.356;2023-02-13T00:07:34;80.93;;;37.17;;
5912;SDS011;2982;42.684;23.356;2023-02-13T00:09:59;73.47;;;33.47;;
5912;SDS011;2982;42.684;23.356;2023-02-13T00:12:24;75.10;;;36.20;;
5912;SDS011;2982;42.684;23.356;2023-02-13T00:14:50;70.57;;;32.90;;
5912;SDS011;2982;42.684;23.356;2023-02-13T00:17:15;76.80;;;34.33;;
5912;SDS011;2982;42.684;23.356;2023-02-13T00:19:40;70.03;;;31.83;;
5912;SDS011;2982;42.684;23.356;2023-02-13T00:22:06;66.40;;;31.60;;
5912;SDS011;2982;42.684;23.356;2023-02-13T00:24:31;67.07;;;31.90;;
5912;SDS011;2982;42.684;23.356;2023-02-13T00:26:56;69.40;;;34.20;;
5912;SDS011;2982;42.684;23.356;2023-02-13T00:29:22;69.23;;;33.00;;
5912;SDS011;2982;42.684;23.356;2023-02-13T00:31:47;71.93;;;34.13;;
5912;SDS011;2982;42.684;23.356;2023-02-13T00:34:12;67.57;;;33.87;;
5912;SDS011;2982;42.684;23.356;2023-02-13T00:36:38;74.13;;;34.57;;
5912;SDS011;2982;42.684;23.356;2023-02-13T00:39:03;77.30;;;33.33;;
5912;SDS011;2982;42.684;23.356;2023-02-13T00:41:29;74.37;;;33.73;;
5912;SDS011;2982;42.684;23.356;2023-02-13T00:43:54;66.93;;;34.40;;
5912;SDS011;2982;42.684;23.356;2023-02-13T00:46:19;78.73;;;36.80;;
5912;SDS011;2982;42.684;23.356;2023-02-13T00:48:45;80.43;;;35.77;;
5912;SDS011;2982;42.684;23.356;2023-02-13T00:51:10;71.07;;;32.43;;
5912;SDS011;2982;42.684;23.356;2023-02-13T00:53:36;71.83;;;34.20;;
5912;SDS011;2982;42.684;23.356;2023-02-13T00:56:02;76.83;;;36.27;;
5912;SDS011;2982;42.684;23.356;2023-02-13T00:58:29;82.07;;;34.13;;
5912;SDS011;2982;42.684;23.356;2023-02-13T01:00:54;73.97;;;34.77;;
5912;SDS011;2982;42.684;23.356;2023-02-13T01:03:20;66.53;;;32.70;;
5912;SDS011;2982;42.684;23.356;2023-02-13T01:05:46;78.83;;;37.10;;
5912;SDS011;2982;42.684;23.356;2023-02-13T01:08:13;75.07;;;32.50;;
5912;SDS011;2982;42.684;23.356;2023-02-13T01:10:40;77.03;;;35.17;;
5912;SDS011;2982;42.684;23.356;2023-02-13T01:13:06;73.87;;;33.87;;
5912;SDS011;2982;42.684;23.356;2023-02-13T01:15:33;76.73;;;34.17;;
5912;SDS011;2982;42.684;23.356;2023-02-13T01:17:58;72.10;;;34.33;;
5912;SDS011;2982;42.684;23.356;2023-02-13T01:20:24;67.80;;;31.70;;
5912;SDS011;2982;42.684;23.356;2023-02-13T01:22:49;77.73;;;34.13;;
5912;SDS011;2982;42.684;23.356;2023-02-13T01:25:15;79.50;;;35.50;;
5912;SDS011;2982;42.684;23.356;2023-02-13T01:27:40;74.27;;;31.70;;
5912;SDS011;2982;42.684;23.356;2023-02-13T01:30:06;71.17;;;32.73;;
5912;SDS011;2982;42.684;23.356;2023-02-13T01:32:34;75.77;;;34.13;;
5912;SDS011;2982;42.684;23.356;2023-02-13T01:34:59;75.03;;;34.30;;
5912;SDS011;2982;42.684;23.356;2023-02-13T01:37:25;77.30;;;34.83;;
5912;SDS011;2982;42.684;23.356;2023-02-13T01:39:50;82.60;;;36.93;;
5912;SDS011;2982;42.684;23.356;2023-02-13T01:42:16;76.20;;;35.03;;
5912;SDS011;2982;42.684;23.356;2023-02-13T01:44:47;78.10;;;35.73;;
5912;SDS011;2982;42.684;23.356;2023-02-13T01:50:27;70.17;;;32.60;;
5912;SDS011;2982;42.684;23.356;2023-02-13T01:52:55;71.73;;;33.87;;
5912;SDS011;2982;42.684;23.356;2023-02-13T01:55:24;78.70;;;34.73;;
5912;SDS011;2982;42.684;23.356;2023-02-13T01:57:52;67.10;;;32.80;;
5912;SDS011;2982;42.684;23.356;2023-02-13T02:00:22;76.00;;;32.57;;
5912;SDS011;2982;42.684;23.356;2023-02-13T02:02:49;70.60;;;33.07;;
5912;SDS011;2982;42.684;23.356;2023-02-13T02:05:19;73.07;;;36.10;;
5912;SDS011;2982;42.684;23.356;2023-02-13T02:07:48;75.37;;;33.70;;
5912;SDS011;2982;42.684;23.356;2023-02-13T02:10:15;67.90;;;34.03;;
5912;SDS011;2982;42.684;23.356;2023-02-13T02:15:29;69.07;;;29.70;;
5912;SDS011;2982;42.684;23.356;2023-02-13T02:17:55;67.90;;;33.70;;
5912;SDS011;2982;42.684;23.356;2023-02-13T02:42:37;65.13;;;29.73;;
5912;SDS011;2982;42.684;23.356;2023-02-13T02:50:42;71.17;;;32.47;;
5912;SDS011;2982;42.684;23.356;2023-02-13T02:58:24;73.27;;;33.10;;
5912;SDS011;2982;42.684;23.356;2023-02-13T03:00:57;71.70;;;33.27;;
5912;SDS011;2982;42.684;23.356;2023-02-13T03:03:25;69.03;;;33.60;;
5912;SDS011;2982;42.684;23.356;2023-02-13T03:05:51;73.43;;;33.10;;
5912;SDS011;2982;42.684;23.356;2023-02-13T03:08:19;72.17;;;34.43;;
5912;SDS011;2982;42.684;23.356;2023-02-13T03:10:44;73.00;;;34.63;;
5912;SDS011;2982;42.684;23.356;2023-02-13T03:13:14;78.73;;;35.87;;
5912;SDS011;2982;42.684;23.356;2023-02-13T03:15:52;69.10;;;34.07;;
5912;SDS011;2982;42.684;23.356;2023-02-13T03:18:22;72.47;;;32.93;;
5912;SDS011;2982;42.684;23.356;2023-02-13T03:20:51;75.63;;;35.53;;
5912;SDS011;2982;42.684;23.356;2023-02-13T03:26:16;75.03;;;36.57;;
5912;SDS011;2982;42.684;23.356;2023-02-13T03:28:56;77.73;;;34.83;;
5912;SDS011;2982;42.684;23.356;2023-02-13T03:31:34;70.40;;;34.60;;
5912;SDS011;2982;42.684;23.356;2023-02-13T03:34:14;79.77;;;38.60;;
5912;SDS011;2982;42.684;23.356;2023-02-13T03:41:55;117.60;;;50.67;;
5912;SDS011;2982;42.684;23.356;2023-02-13T03:47:00;120.97;;;53.73;;
5912;SDS011;2982;42.684;23.356;2023-02-13T03:49:32;114.17;;;51.70;;
5912;SDS011;2982;42.684;23.356;2023-02-13T03:52:06;130.23;;;54.47;;
5912;SDS011;2982;42.684;23.356;2023-02-13T03:54:40;130.40;;;56.40;;
5912;SDS011;2982;42.684;23.356;2023-02-13T03:57:09;115.67;;;51.83;;
5912;SDS011;2982;42.684;23.356;2023-02-13T03:59:42;115.50;;;50.77;;
5912;SDS011;2982;42.684;23.356;2023-02-13T04:02:18;120.83;;;50.67;;
5912;SDS011;2982;42.684;23.356;2023-02-13T04:07:22;108.57;;;46.87;;
5912;SDS011;2982;42.684;23.356;2023-02-13T04:09:48;98.10;;;44.80;;
5912;SDS011;2982;42.684;23.356;2023-02-13T04:12:21;104.83;;;44.67;;
5912;SDS011;2982;42.684;23.356;2023-02-13T04:15:01;90.90;;;41.87;;
5912;SDS011;2982;42.684;23.356;2023-02-13T04:17:34;96.93;;;42.73;;
5912;SDS011;2982;42.684;23.356;2023-02-13T04:20:03;92.90;;;42.60;;
5912;SDS011;2982;42.684;23.356;2023-02-13T04:22:29;103.97;;;43.53;;
5912;SDS011;2982;42.684;23.356;2023-02-13T04:24:55;91.40;;;40.40;;
5912;SDS011;2982;42.684;23.356;2023-02-13T04:27:20;91.47;;;43.23;;
5912;SDS011;2982;42.684;23.356;2023-02-13T04:29:50;95.77;;;42.30;;
5912;SDS011;2982;42.684;23.356;2023-02-13T04:32:15;84.63;;;38.73;;
5912;SDS011;2982;42.684;23.356;2023-02-13T04:34:40;88.67;;;41.70;;
5912;SDS011;2982;42.684;23.356;2023-02-13T04:37:06;82.50;;;39.57;;
5912;SDS011;2982;42.684;23.356;2023-02-13T04:39:31;91.23;;;40.50;;
5912;SDS011;2982;42.684;23.356;2023-02-13T04:41:56;76.67;;;37.17;;
5912;SDS011;2982;42.684;23.356;2023-02-13T04:44:21;85.67;;;39.40;;
5912;SDS011;2982;42.684;23.356;2023-02-13T04:46:47;85.53;;;38.10;;
5912;SDS011;2982;42.684;23.356;2023-02-13T04:49:12;81.00;;;40.47;;
5912;SDS011;2982;42.684;23.356;2023-02-13T04:51:37;84.37;;;38.90;;
5912;SDS011;2982;42.684;23.356;2023-02-13T04:54:03;79.90;;;37.13;;
5912;SDS011;2982;42.684;23.356;2023-02-13T04:56:28;84.80;;;38.17;;
5912;SDS011;2982;42.684;23.356;2023-02-13T04:58:53;84.37;;;39.97;;
5912;SDS011;2982;42.684;23.356;2023-02-13T05:01:19;81.73;;;38.47;;
5912;SDS011;2982;42.684;23.356;2023-02-13T05:03:44;90.30;;;40.73;;
5912;SDS011;2982;42.684;23.356;2023-02-13T05:06:09;78.83;;;38.10;;
5912;SDS011;2982;42.684;23.356;2023-02-13T05:08:35;76.20;;;36.83;;
5912;SDS011;2982;42.684;23.356;2023-02-13T05:11:00;83.33;;;36.93;;
5912;SDS011;2982;42.684;23.356;2023-02-13T05:13:25;84.97;;;39.73;;
5912;SDS011;2982;42.684;23.356;2023-02-13T05:15:51;81.10;;;37.33;;
5912;SDS011;2982;42.684;23.356;2023-02-13T05:18:16;83.33;;;38.23;;
5912;SDS011;2982;42.684;23.356;2023-02-13T05:20:41;82.93;;;38.77;;
5912;SDS011;2982;42.684;23.356;2023-02-13T05:23:07;88.57;;;37.90;;
5912;SDS011;2982;42.684;23.356;2023-02-13T05:25:38;87.37;;;38.63;;
5912;SDS011;2982;42.684;23.356;2023-02-13T05:28:05;82.13;;;38.10;;
5912;SDS011;2982;42.684;23.356;2023-02-13T05:30:31;81.43;;;37.53;;
5912;SDS011;2982;42.684;23.356;2023-02-13T05:32:57;84.13;;;38.60;;
5912;SDS011;2982;42.684;23.356;2023-02-13T05:35:22;78.37;;;39.13;;
5912;SDS011;2982;42.684;23.356;2023-02-13T05:37:48;70.10;;;35.67;;
5912;SDS011;2982;42.684;23.356;2023-02-13T05:40:13;80.60;;;36.50;;
5912;SDS011;2982;42.684;23.356;2023-02-13T05:42:42;81.70;;;38.23;;
5912;SDS011;2982;42.684;23.356;2023-02-13T05:45:07;91.53;;;41.90;;
5912;SDS011;2982;42.684;23.356;2023-02-13T05:47:33;98.20;;;44.53;;
5912;SDS011;2982;42.684;23.356;2023-02-13T05:49:59;97.37;;;43.77;;
5912;SDS011;2982;42.684;23.356;2023-02-13T05:52:24;92.73;;;44.50;;
5912;SDS011;2982;42.684;23.356;2023-02-13T05:54:50;100.53;;;45.20;;
5912;SDS011;2982;42.684;23.356;2023-02-13T05:57:15;104.10;;;47.83;;
5912;SDS011;2982;42.684;23.356;2023-02-13T05:59:41;99.90;;;47.50;;
5912;SDS011;2982;42.684;23.356;2023-02-13T06:02:06;88.27;;;41.90;;
5912;SDS011;2982;42.684;23.356;2023-02-13T06:04:31;97.87;;;45.63;;
5912;SDS011;2982;42.684;23.356;2023-02-13T06:06:56;101.77;;;49.23;;
5912;SDS011;2982;42.684;23.356;2023-02-13T06:09:22;93.90;;;47.87;;
5912;SDS011;2982;42.684;23.356;2023-02-13T06:11:47;120.40;;;53.57;;
5912;SDS011;2982;42.684;23.356;2023-02-13T06:14:12;114.87;;;53.20;;
5912;SDS011;2982;42.684;23.356;2023-02-13T06:16:38;106.87;;;51.93;;
5912;SDS011;2982;42.684;23.356;2023-02-13T06:19:03;109.83;;;52.23;;
5912;SDS011;2982;42.684;23.356;2023-02-13T06:21:28;113.37;;;52.63;;
5912;SDS011;2982;42.684;23.356;2023-02-13T06:23:54;120.63;;;55.30;;
5912;SDS011;2982;42.684;23.356;2023-02-13T06:26:19;103.60;;;49.73;;
5912;SDS011;2982;42.684;23.356;2023-02-13T06:28:44;109.80;;;49.97;;
5912;SDS011;2982;42.684;23.356;2023-02-13T06:31:10;109.43;;;49.93;;
5912;SDS011;2982;42.684;23.356;2023-02-13T06:33:35;111.07;;;49.40;;
5912;SDS011;2982;42.684;23.356;2023-02-13T06:36:00;111.97;;;48.57;;
5912;SDS011;2982;42.684;23.356;2023-02-13T06:38:25;105.50;;;45.77;;
5912;SDS011;2982;42.684;23.356;2023-02-13T06:40:51;90.00;;;42.73;;
5912;SDS011;2982;42.684;23.356;2023-02-13T06:43:16;89.30;;;40.03;;
5912;SDS011;2982;42.684;23.356;2023-02-13T06:45:42;78.07;;;38.83;;
5912;SDS011;2982;42.684;23.356;2023-02-13T06:48:07;76.30;;;35.43;;
5912;SDS011;2982;42.684;23.356;2023-02-13T06:50:33;75.33;;;36.87;;
5912;SDS011;2982;42.684;23.356;2023-02-13T06:52:58;74.23;;;35.23;;
5912;SDS011;2982;42.684;23.356;2023-02-13T06:55:24;68.67;;;35.33;;
5912;SDS011;2982;42.684;23.356;2023-02-13T06:57:49;73.00;;;35.67;;
5912;SDS011;2982;42.684;23.356;2023-02-13T07:00:15;63.03;;;31.00;;
5912;SDS011;2982;42.684;23.356;2023-02-13T07:02:41;64.33;;;32.67;;
5912;SDS011;2982;42.684;23.356;2023-02-13T07:05:08;56.93;;;31.10;;
5912;SDS011;2982;42.684;23.356;2023-02-13T07:07:35;56.43;;;28.53;;
5912;SDS011;2982;42.684;23.356;2023-02-13T07:10:05;54.43;;;27.87;;
5912;SDS011;2982;42.684;23.356;2023-02-13T07:12:35;56.80;;;29.40;;
5912;SDS011;2982;42.684;23.356;2023-02-13T07:15:00;51.07;;;28.10;;
5912;SDS011;2982;42.684;23.356;2023-02-13T07:17:26;52.50;;;27.63;;
5912;SDS011;2982;42.684;23.356;2023-02-13T07:19:51;51.87;;;26.50;;
5912;SDS011;2982;42.684;23.356;2023-02-13T07:22:17;56.47;;;28.80;;
5912;SDS011;2982;42.684;23.356;2023-02-13T07:24:42;54.93;;;28.10;;
5912;SDS011;2982;42.684;23.356;2023-02-13T07:27:08;54.50;;;28.73;;
5912;SDS011;2982;42.684;23.356;2023-02-13T07:29:33;59.33;;;28.73;;
5912;SDS011;2982;42.684;23.356;2023-02-13T07:31:58;57.37;;;29.53;;
5912;SDS011;2982;42.684;23.356;2023-02-13T07:34:24;64.37;;;30.17;;
5912;SDS011;2982;42.684;23.356;2023-02-13T07:36:49;51.77;;;28.10;;
5912;SDS011;2982;42.684;23.356;2023-02-13T07:39:14;57.60;;;28.50;;
5912;SDS011;2982;42.684;23.356;2023-02-13T07:41:39;54.93;;;29.20;;
5912;SDS011;2982;42.684;23.356;2023-02-13T07:44:05;70.57;;;34.60;;
5912;SDS011;2982;42.684;23.356;2023-02-13T07:46:30;63.73;;;33.00;;
5912;SDS011;2982;42.684;23.356;2023-02-13T07:48:55;62.57;;;32.43;;
5912;SDS011;2982;42.684;23.356;2023-02-13T07:51:20;65.37;;;32.57;;
5912;SDS011;2982;42.684;23.356;2023-02-13T07:53:46;64.13;;;33.00;;
5912;SDS011;2982;42.684;23.356;2023-02-13T07:56:11;69.07;;;34.93;;
5912;SDS011;2982;42.684;23.356;2023-02-13T07:58:36;67.47;;;33.77;;
5912;SDS011;2982;42.684;23.356;2023-02-13T08:01:09;67.43;;;34.33;;
5912;SDS011;2982;42.684;23.356;2023-02-13T08:03:36;65.63;;;35.13;;
5912;SDS011;2982;42.684;23.356;2023-02-13T08:06:01;73.27;;;36.60;;
5912;SDS011;2982;42.684;23.356;2023-02-13T08:08:27;78.23;;;39.80;;
5912;SDS011;2982;42.684;23.356;2023-02-13T08:10:53;77.33;;;37.50;;
5912;SDS011;2982;42.684;23.356;2023-02-13T08:13:19;69.07;;;37.07;;
5912;SDS011;2982;42.684;23.356;2023-02-13T08:15:44;69.67;;;34.87;;
5912;SDS011;2982;42.684;23.356;2023-02-13T08:18:12;62.13;;;33.70;;
5912;SDS011;2982;42.684;23.356;2023-02-13T08:20:37;64.97;;;33.70;;
5912;SDS011;2982;42.684;23.356;2023-02-13T08:23:03;63.30;;;33.53;;
5912;SDS011;2982;42.684;23.356;2023-02-13T08:25:29;59.50;;;33.87;;
5912;SDS011;2982;42.684;23.356;2023-02-13T08:27:54;68.93;;;34.67;;
5912;SDS011;2982;42.684;23.356;2023-02-13T08:30:20;68.30;;;36.73;;
5912;SDS011;2982;42.684;23.356;2023-02-13T08:32:45;76.33;;;37.07;;
5912;SDS011;2982;42.684;23.356;2023-02-13T08:35:11;70.63;;;35.57;;
5912;SDS011;2982;42.684;23.356;2023-02-13T08:37:36;68.27;;;36.83;;
5912;SDS011;2982;42.684;23.356;2023-02-13T08:40:01;75.20;;;39.03;;
5912;SDS011;2982;42.684;23.356;2023-02-13T08:42:27;80.60;;;40.90;;
5912;SDS011;2982;42.684;23.356;2023-02-13T08:44:52;65.10;;;35.03;;
5912;SDS011;2982;42.684;23.356;2023-02-13T08:47:17;64.90;;;33.70;;
5912;SDS011;2982;42.684;23.356;2023-02-13T08:49:42;67.90;;;34.80;;
5912;SDS011;2982;42.684;23.356;2023-02-13T08:52:08;71.83;;;35.67;;
5912;SDS011;2982;42.684;23.356;2023-02-13T08:54:33;66.30;;;33.40;;
5912;SDS011;2982;42.684;23.356;2023-02-13T08:56:59;67.77;;;35.00;;
5912;SDS011;2982;42.684;23.356;2023-02-13T08:59:24;101.63;;;49.43;;
5912;SDS011;2982;42.684;23.356;2023-02-13T09:01:49;62.37;;;35.13;;
5912;SDS011;2982;42.684;23.356;2023-02-13T09:04:14;67.47;;;36.10;;
5912;SDS011;2982;42.684;23.356;2023-02-13T09:06:40;62.13;;;33.10;;
5912;SDS011;2982;42.684;23.356;2023-02-13T09:09:06;53.57;;;29.17;;
5912;SDS011;2982;42.684;23.356;2023-02-13T09:11:31;56.40;;;28.97;;
5912;SDS011;2982;42.684;23.356;2023-02-13T09:13:56;55.17;;;28.57;;
5912;SDS011;2982;42.684;23.356;2023-02-13T09:16:22;53.97;;;26.43;;
5912;SDS011;2982;42.684;23.356;2023-02-13T09:18:47;53.03;;;29.00;;
5912;SDS011;2982;42.684;23.356;2023-02-13T09:21:14;55.27;;;30.47;;
5912;SDS011;2982;42.684;23.356;2023-02-13T09:23:43;54.03;;;26.53;;
5912;SDS011;2982;42.684;23.356;2023-02-13T09:26:09;55.93;;;30.53;;
5912;SDS011;2982;42.684;23.356;2023-02-13T09:28:36;57.97;;;30.63;;
5912;SDS011;2982;42.684;23.356;2023-02-13T09:31:09;53.83;;;29.53;;
5912;SDS011;2982;42.684;23.356;2023-02-13T09:33:36;59.90;;;31.53;;
5912;SDS011;2982;42.684;23.356;2023-02-13T09:36:05;52.53;;;29.00;;
5912;SDS011;2982;42.684;23.356;2023-02-13T09:38:31;52.63;;;28.47;;
5912;SDS011;2982;42.684;23.356;2023-02-13T09:40:58;56.53;;;29.70;;
5912;SDS011;2982;42.684;23.356;2023-02-13T09:45:59;52.53;;;28.37;;
5912;SDS011;2982;42.684;23.356;2023-02-13T09:48:31;55.17;;;31.13;;
5912;SDS011;2982;42.684;23.356;2023-02-13T09:51:01;63.17;;;33.33;;
5912;SDS011;2982;42.684;23.356;2023-02-13T09:53:28;60.57;;;32.80;;
5912;SDS011;2982;42.684;23.356;2023-02-13T09:58:23;51.80;;;29.20;;
5912;SDS011;2982;42.684;23.356;2023-02-13T10:00:56;64.03;;;32.33;;
5912;SDS011;2982;42.684;23.356;2023-02-13T10:11:20;58.30;;;30.90;;
5912;SDS011;2982;42.684;23.356;2023-02-13T10:14:14;60.23;;;33.43;;
5912;SDS011;2982;42.684;23.356;2023-02-13T10:22:19;54.07;;;30.40;;
5912;SDS011;2982;42.684;23.356;2023-02-13T10:24:56;60.87;;;30.00;;
5912;SDS011;2982;42.684;23.356;2023-02-13T10:27:38;61.43;;;32.70;;
5912;SDS011;2982;42.684;23.356;2023-02-13T10:30:07;55.97;;;31.37;;
5912;SDS011;2982;42.684;23.356;2023-02-13T10:35:26;50.70;;;28.60;;
5912;SDS011;2982;42.684;23.356;2023-02-13T10:37:55;49.53;;;27.83;;
5912;SDS011;2982;42.684;23.356;2023-02-13T10:40:32;54.37;;;27.87;;
5912;SDS011;2982;42.684;23.356;2023-02-13T10:43:07;54.00;;;29.97;;
5912;SDS011;2982;42.684;23.356;2023-02-13T10:45:48;59.73;;;31.00;;
5912;SDS011;2982;42.684;23.356;2023-02-13T10:51:08;48.97;;;27.70;;
5912;SDS011;2982;42.684;23.356;2023-02-13T10:54:08;50.17;;;28.93;;
5912;SDS011;2982;42.684;23.356;2023-02-13T11:02:24;49.90;;;28.20;;
5912;SDS011;2982;42.684;23.356;2023-02-13T11:04:52;52.07;;;27.90;;
5912;SDS011;2982;42.684;23.356;2023-02-13T11:07:22;47.83;;;26.47;;
5912;SDS011;2982;42.684;23.356;2023-02-13T11:09:49;49.87;;;26.77;;
5912;SDS011;2982;42.684;23.356;2023-02-13T11:14:56;46.43;;;25.30;;
5912;SDS011;2982;42.684;23.356;2023-02-13T11:17:25;47.27;;;25.73;;
5912;SDS011;2982;42.684;23.356;2023-02-13T11:19:56;45.40;;;26.07;;
5912;SDS011;2982;42.684;23.356;2023-02-13T11:22:26;43.83;;;24.93;;
5912;SDS011;2982;42.684;23.356;2023-02-13T11:24:55;52.20;;;26.90;;
5912;SDS011;2982;42.684;23.356;2023-02-13T11:27:27;47.30;;;24.97;;
5912;SDS011;2982;42.684;23.356;2023-02-13T11:30:01;42.53;;;23.57;;
5912;SDS011;2982;42.684;23.356;2023-02-13T11:32:55;46.17;;;25.07;;
5912;SDS011;2982;42.684;23.356;2023-02-13T11:35:30;40.57;;;24.73;;
5912;SDS011;2982;42.684;23.356;2023-02-13T11:40:41;36.27;;;22.10;;
5912;SDS011;2982;42.684;23.356;2023-02-13T11:43:13;36.93;;;22.80;;
5912;SDS011;2982;42.684;23.356;2023-02-13T11:45:43;37.60;;;21.63;;
5912;SDS011;2982;42.684;23.356;2023-02-13T11:48:14;36.30;;;21.17;;
5912;SDS011;2982;42.684;23.356;2023-02-13T11:50:49;36.47;;;20.63;;
5912;SDS011;2982;42.684;23.356;2023-02-13T11:53:19;30.53;;;17.80;;
5912;SDS011;2982;42.684;23.356;2023-02-13T11:58:30;29.27;;;16.90;;
5912;SDS011;2982;42.684;23.356;2023-02-13T12:03:43;29.57;;;17.93;;
5912;SDS011;2982;42.684;23.356;2023-02-13T12:06:13;21.90;;;15.03;;
5912;SDS011;2982;42.684;23.356;2023-02-13T12:08:43;26.33;;;15.57;;
5912;SDS011;2982;42.684;23.356;2023-02-13T12:11:17;23.37;;;14.83;;
5912;SDS011;2982;42.684;23.356;2023-02-13T12:13:48;21.67;;;13.80;;
5912;SDS011;2982;42.684;23.356;2023-02-13T12:19:05;17.70;;;12.13;;
5912;SDS011;2982;42.684;23.356;2023-02-13T12:21:57;17.77;;;12.00;;
5912;SDS011;2982;42.684;23.356;2023-02-13T12:32:19;18.63;;;12.70;;
5912;SDS011;2982;42.684;23.356;2023-02-13T12:40:21;17.53;;;12.27;;
5912;SDS011;2982;42.684;23.356;2023-02-13T12:48:43;15.63;;;9.83;;
5912;SDS011;2982;42.684;23.356;2023-02-13T13:12:29;15.47;;;9.90;;
5912;SDS011;2982;42.684;23.356;2023-02-13T13:17:42;21.53;;;11.10;;
5912;SDS011;2982;42.684;23.356;2023-02-13T13:23:28;15.67;;;10.20;;
5912;SDS011;2982;42.684;23.356;2023-02-13T13:28:23;13.87;;;10.40;;
5912;SDS011;2982;42.684;23.356;2023-02-13T13:30:53;14.50;;;10.13;;
5912;SDS011;2982;42.684;23.356;2023-02-13T13:33:22;17.00;;;11.00;;
5912;SDS011;2982;42.684;23.356;2023-02-13T13:41:17;21.83;;;9.87;;
5912;SDS011;2982;42.684;23.356;2023-02-13T13:52:29;15.83;;;10.93;;
5912;SDS011;2982;42.684;23.356;2023-02-13T13:54:57;13.97;;;10.50;;
5912;SDS011;2982;42.684;23.356;2023-02-13T13:57:24;16.77;;;10.20;;
5912;SDS011;2982;42.684;23.356;2023-02-13T14:05:01;17.13;;;9.40;;
5912;SDS011;2982;42.684;23.356;2023-02-13T14:07:37;15.30;;;10.17;;
5912;SDS011;2982;42.684;23.356;2023-02-13T14:28:40;13.50;;;10.20;;
5912;SDS011;2982;42.684;23.356;2023-02-13T14:33:45;17.50;;;11.30;;
5912;SDS011;2982;42.684;23.356;2023-02-13T14:36:19;15.17;;;10.57;;
5912;SDS011;2982;42.684;23.356;2023-02-13T14:38:56;12.53;;;10.23;;
5912;SDS011;2982;42.684;23.356;2023-02-13T14:42:19;19.83;;;11.77;;
5912;SDS011;2982;42.684;23.356;2023-02-13T14:44:17;15.87;;;10.70;;
5912;SDS011;2982;42.684;23.356;2023-02-13T14:46:46;15.97;;;9.30;;
5912;SDS011;2982;42.684;23.356;2023-02-13T14:51:46;15.57;;;10.87;;
5912;SDS011;2982;42.684;23.356;2023-02-13T14:54:18;15.67;;;11.60;;
5912;SDS011;2982;42.684;23.356;2023-02-13T14:59:40;16.93;;;9.93;;
5912;SDS011;2982;42.684;23.356;2023-02-13T15:04:43;16.67;;;11.23;;
5912;SDS011;2982;42.684;23.356;2023-02-13T15:07:20;15.90;;;11.60;;
5912;SDS011;2982;42.684;23.356;2023-02-13T15:09:58;14.70;;;10.70;;
5912;SDS011;2982;42.684;23.356;2023-02-13T15:12:54;19.70;;;11.17;;
5912;SDS011;2982;42.684;23.356;2023-02-13T15:15:22;22.63;;;11.53;;
5912;SDS011;2982;42.684;23.356;2023-02-13T15:17:49;19.87;;;10.73;;
5912;SDS011;2982;42.684;23.356;2023-02-13T15:20:22;18.20;;;11.10;;
5912;SDS011;2982;42.684;23.356;2023-02-13T15:22:48;14.53;;;10.17;;
5912;SDS011;2982;42.684;23.356;2023-02-13T15:25:21;17.23;;;10.03;;
5912;SDS011;2982;42.684;23.356;2023-02-13T15:28:14;10.83;;;8.70;;
5912;SDS011;2982;42.684;23.356;2023-02-13T15:30:52;17.87;;;11.03;;
5912;SDS011;2982;42.684;23.356;2023-02-13T15:33:30;15.57;;;10.13;;
5912;SDS011;2982;42.684;23.356;2023-02-13T15:36:02;19.77;;;11.10;;
5912;SDS011;2982;42.684;23.356;2023-02-13T15:38:30;16.47;;;10.73;;
5912;SDS011;2982;42.684;23.356;2023-02-13T15:41:08;18.20;;;11.30;;
5912;SDS011;2982;42.684;23.356;2023-02-13T15:43:37;25.57;;;11.23;;
5912;SDS011;2982;42.684;23.356;2023-02-13T15:46:27;15.83;;;10.83;;
5912;SDS011;2982;42.684;23.356;2023-02-13T15:49:05;15.00;;;10.07;;
5912;SDS011;2982;42.684;23.356;2023-02-13T15:51:42;17.23;;;11.00;;
5912;SDS011;2982;42.684;23.356;2023-02-13T15:54:21;16.37;;;10.43;;
5912;SDS011;2982;42.684;23.356;2023-02-13T15:56:55;19.47;;;10.33;;
5912;SDS011;2982;42.684;23.356;2023-02-13T15:59:23;15.40;;;9.20;;
5912;SDS011;2982;42.684;23.356;2023-02-13T16:01:53;16.33;;;11.33;;
5912;SDS011;2982;42.684;23.356;2023-02-13T16:04:19;16.03;;;10.80;;
5912;SDS011;2982;42.684;23.356;2023-02-13T16:06:45;11.53;;;9.03;;
5912;SDS011;2982;42.684;23.356;2023-02-13T16:09:22;13.80;;;9.13;;
5912;SDS011;2982;42.684;23.356;2023-02-13T16:11:48;16.43;;;11.07;;
5912;SDS011;2982;42.684;23.356;2023-02-13T16:19:23;22.67;;;11.87;;
5912;SDS011;2982;42.684;23.356;2023-02-13T16:21:48;18.53;;;11.60;;
5912;SDS011;2982;42.684;23.356;2023-02-13T16:24:15;20.47;;;12.77;;
5912;SDS011;2982;42.684;23.356;2023-02-13T16:26:45;20.70;;;11.77;;
5912;SDS011;2982;42.684;23.356;2023-02-13T16:29:16;19.63;;;12.47;;
5912;SDS011;2982;42.684;23.356;2023-02-13T16:31:44;20.47;;;10.83;;
5912;SDS011;2982;42.684;23.356;2023-02-13T16:34:14;15.40;;;10.90;;
5912;SDS011;2982;42.684;23.356;2023-02-13T16:36:59;26.47;;;13.50;;
5912;SDS011;2982;42.684;23.356;2023-02-13T16:39:26;16.37;;;11.47;;
5912;SDS011;2982;42.684;23.356;2023-02-13T16:41:53;26.07;;;14.60;;
5912;SDS011;2982;42.684;23.356;2023-02-13T16:44:21;25.03;;;13.37;;
5912;SDS011;2982;42.684;23.356;2023-02-13T16:46:58;20.17;;;13.67;;
5912;SDS011;2982;42.684;23.356;2023-02-13T16:49:26;27.67;;;16.17;;
5912;SDS011;2982;42.684;23.356;2023-02-13T16:54:38;25.20;;;14.50;;
5912;SDS011;2982;42.684;23.356;2023-02-13T17:04:40;24.63;;;14.13;;
5912;SDS011;2982;42.684;23.356;2023-02-13T17:07:11;29.67;;;17.27;;
5912;SDS011;2982;42.684;23.356;2023-02-13T17:09:37;28.47;;;16.83;;
5912;SDS011;2982;42.684;23.356;2023-02-13T17:12:03;31.83;;;18.10;;
5912;SDS011;2982;42.684;23.356;2023-02-13T17:14:35;31.10;;;18.80;;
5912;SDS011;2982;42.684;23.356;2023-02-13T17:17:00;33.83;;;19.40;;
5912;SDS011;2982;42.684;23.356;2023-02-13T17:19:25;30.63;;;17.30;;
5912;SDS011;2982;42.684;23.356;2023-02-13T17:21:50;26.93;;;16.63;;
5912;SDS011;2982;42.684;23.356;2023-02-13T17:24:16;28.27;;;14.83;;
5912;SDS011;2982;42.684;23.356;2023-02-13T17:26:41;30.63;;;18.63;;
5912;SDS011;2982;42.684;23.356;2023-02-13T17:29:07;30.47;;;16.63;;
5912;SDS011;2982;42.684;23.356;2023-02-13T17:31:32;32.00;;;18.77;;
5912;SDS011;2982;42.684;23.356;2023-02-13T17:33:57;27.43;;;17.73;;
5912;SDS011;2982;42.684;23.356;2023-02-13T17:36:23;32.90;;;18.50;;
5912;SDS011;2982;42.684;23.356;2023-02-13T17:38:48;25.30;;;15.77;;
5912;SDS011;2982;42.684;23.356;2023-02-13T17:41:14;23.40;;;15.40;;
5912;SDS011;2982;42.684;23.356;2023-02-13T17:43:39;24.23;;;15.97;;
5912;SDS011;2982;42.684;23.356;2023-02-13T17:46:05;29.13;;;17.57;;
5912;SDS011;2982;42.684;23.356;2023-02-13T17:48:30;32.03;;;18.53;;
5912;SDS011;2982;42.684;23.356;2023-02-13T17:50:55;28.63;;;15.60;;
5912;SDS011;2982;42.684;23.356;2023-02-13T17:53:25;27.93;;;17.10;;
5912;SDS011;2982;42.684;23.356;2023-02-13T17:55:52;29.57;;;15.53;;
5912;SDS011;2982;42.684;23.356;2023-02-13T17:58:17;25.43;;;15.70;;
5912;SDS011;2982;42.684;23.356;2023-02-13T18:00:43;30.70;;;14.67;;
5912;SDS011;2982;42.684;23.356;2023-02-13T18:03:09;30.23;;;16.70;;
5912;SDS011;2982;42.684;23.356;2023-02-13T18:05:36;29.87;;;17.23;;
5912;SDS011;2982;42.684;23.356;2023-02-13T18:08:01;32.87;;;18.07;;